sensor_id;sensor_type;location;lat;lon;timestamp;pressure;altitude;pressure_sealevel;temperature;humidity
6833;BME280;3454;42.654;23.378;2024-03-07T00:00:08;63902.91;;;9.19;100.00
6833;BME280;3454;42.654;23.378;2024-03-07T00:02:44;63907.81;;;9.23;100.00
6833;BME280;3454;42.654;23.378;2024-03-07T00:05:11;63910.31;;;9.23;100.00
6833;BME280;3454;42.654;23.378;2024-03-07T00:07:38;63922.34;;;9.35;100.00
6833;BME280;3454;42.654;23.378;2024-03-07T00:10:04;63923.97;;;9.36;100.00
6833;BME280;3454;42.654;23.378;2024-03-07T00:12:33;63917.09;;;9.32;100.00
6833;BME280;3454;42.654;23.378;2024-03-07T00:15:01;63930.75;;;9.45;100.00
6833;BME280;3454;42.654;23.378;2024-03-07T00:17:26;63895.78;;;9.12;100.00
6833;BME280;3454;42.654;23.378;2024-03-07T00:19:52;63916.34;;;9.29;100.00
6833;BME280;3454;42.654;23.378;2024-03-07T00:22:18;63915.78;;;9.28;100.00
6833;BME280;3454;42.654;23.378;2024-03-07T00:24:44;63914.69;;;9.27;100.00
6833;BME280;3454;42.654;23.378;2024-03-07T00:27:13;63923.09;;;9.38;100.00
6833;BME280;3454;42.654;23.378;2024-03-07T00:29:42;63926.94;;;9.41;100.00
6833;BME280;3454;42.654;23.378;2024-03-07T00:32:08;63927.81;;;9.40;100.00
6833;BME280;3454;42.654;23.378;2024-03-07T00:34:34;63921.47;;;9.36;100.00
6833;BME280;3454;42.654;23.378;2024-03-07T00:37:00;63914.34;;;9.29;100.00
6833;BME280;3454;42.654;23.378;2024-03-07T00:39:26;63912.16;;;9.27;100.00
6833;BME280;3454;42.654;23.378;2024-03-07T00:41:52;63918.53;;;9.31;100.00
6833;BME280;3454;42.654;23.378;2024-03-07T00:44:17;63908.13;;;9.21;100.00
6833;BME280;3454;42.654;23.378;2024-03-07T00:46:43;63887.59;;;9.05;100.00
6833;BME280;3454;42.654;23.378;2024-03-07T00:49:14;63893.94;;;9.08;100.00
6833;BME280;3454;42.654;23.378;2024-03-07T00:51:41;63903.22;;;9.17;100.00
6833;BME280;3454;42.654;23.378;2024-03-07T00:54:07;63898.31;;;9.12;100.00
6833;BME280;3454;42.654;23.378;2024-03-07T00:56:32;63891.97;;;9.09;100.00
6833;BME280;3454;42.654;23.378;2024-03-07T00:58:58;63887.94;;;9.03;100.00
6833;BME280;3454;42.654;23.378;2024-03-07T01:01:24;63889.78;;;9.07;100.00
6833;BME280;3454;42.654;23.378;2024-03-07T01:03:49;63891.97;;;9.09;100.00
6833;BME280;3454;42.654;23.378;2024-03-07T01:06:15;63899.72;;;9.11;100.00
6833;BME280;3454;42.654;23.378;2024-03-07T01:08:40;63902.13;;;9.16;100.00
6833;BME280;3454;42.654;23.378;2024-03-07T01:11:06;63896.13;;;9.10;100.00
6833;BME280;3454;42.654;23.378;2024-03-07T01:13:40;63880.81;;;8.96;100.00
6833;BME280;3454;42.654;23.378;2024-03-07T01:16:06;63869.88;;;8.86;100.00
6833;BME280;3454;42.654;23.378;2024-03-07T01:18:32;63860.59;;;8.78;100.00
6833;BME280;3454;42.654;23.378;2024-03-07T01:21:04;63850.22;;;8.68;100.00
6833;BME280;3454;42.654;23.378;2024-03-07T01:23:31;63843.34;;;8.64;100.00
6833;BME280;3454;42.654;23.378;2024-03-07T01:25:58;63853.72;;;8.74;100.00
6833;BME280;3454;42.654;23.378;2024-03-07T01:28:25;63854.59;;;8.72;100.00
6833;BME280;3454;42.654;23.378;2024-03-07T01:30:52;63852.94;;;8.71;100.00
6833;BME280;3454;42.654;23.378;2024-03-07T01:33:21;63860.81;;;8.80;100.00
6833;BME280;3454;42.654;23.378;2024-03-07T01:35:46;63852.94;;;8.71;100.00
6833;BME280;3454;42.654;23.378;2024-03-07T01:38:12;63860.59;;;8.78;100.00
6833;BME280;3454;42.654;23.378;2024-03-07T01:40:40;63842.25;;;8.63;100.00
6833;BME280;3454;42.654;23.378;2024-03-07T01:43:07;63825.63;;;8.45;100.00
6833;BME280;3454;42.654;23.378;2024-03-07T01:45:32;63834.06;;;8.56;100.00
6833;BME280;3454;42.654;23.378;2024-03-07T01:47:59;63842.00;;;8.61;100.00
6833;BME280;3454;42.654;23.378;2024-03-07T01:50:25;63831.31;;;8.53;100.00
6833;BME280;3454;42.654;23.378;2024-03-07T01:52:50;63834.59;;;8.56;100.00
6833;BME280;3454;42.654;23.378;2024-03-07T01:55:17;63847.50;;;8.66;100.00
6833;BME280;3454;42.654;23.378;2024-03-07T01:57:43;63841.38;;;8.65;100.00
6833;BME280;3454;42.654;23.378;2024-03-07T02:00:09;63846.38;;;8.65;100.00
6833;BME280;3454;42.654;23.378;2024-03-07T02:02:35;63831.09;;;8.51;100.00
6833;BME280;3454;42.654;23.378;2024-03-07T02:05:01;63830.56;;;8.50;100.00
6833;BME280;3454;42.654;23.378;2024-03-07T02:07:27;63815.28;;;8.36;100.00
6833;BME280;3454;42.654;23.378;2024-03-07T02:10:10;63813.28;;;8.36;100.00
6833;BME280;3454;42.654;23.378;2024-03-07T02:12:36;63811.44;;;8.32;100.00
6833;BME280;3454;42.654;23.378;2024-03-07T02:15:02;63811.09;;;8.34;100.00
6833;BME280;3454;42.654;23.378;2024-03-07T02:17:28;63796.91;;;8.21;100.00
6833;BME280;3454;42.654;23.378;2024-03-07T02:19:54;63791.75;;;8.14;100.00
6833;BME280;3454;42.654;23.378;2024-03-07T02:22:19;63769.91;;;7.94;100.00
6833;BME280;3454;42.654;23.378;2024-03-07T02:24:46;63769.91;;;7.94;100.00
6833;BME280;3454;42.654;23.378;2024-03-07T02:27:12;63731.94;;;7.61;100.00
6833;BME280;3454;42.654;23.378;2024-03-07T02:29:40;63735.78;;;7.65;100.00
6833;BME280;3454;42.654;23.378;2024-03-07T02:32:06;63722.69;;;7.53;100.00
6833;BME280;3454;42.654;23.378;2024-03-07T02:34:31;63712.63;;;7.41;100.00
6833;BME280;3454;42.654;23.378;2024-03-07T02:36:57;63686.44;;;7.17;100.00
6833;BME280;3454;42.654;23.378;2024-03-07T02:39:23;63690.81;;;7.21;100.00
6833;BME280;3454;42.654;23.378;2024-03-07T02:41:52;63695.72;;;7.26;100.00
6833;BME280;3454;42.654;23.378;2024-03-07T02:44:17;63687.78;;;7.21;100.00
6833;BME280;3454;42.654;23.378;2024-03-07T02:46:43;63689.72;;;7.20;100.00
6833;BME280;3454;42.654;23.378;2024-03-07T02:49:08;63687.78;;;7.21;100.00
6833;BME280;3454;42.654;23.378;2024-03-07T02:51:34;63686.25;;;7.15;100.00
6833;BME280;3454;42.654;23.378;2024-03-07T02:54:01;63690.47;;;7.23;100.00
6833;BME280;3454;42.654;23.378;2024-03-07T02:56:28;63695.41;;;7.28;100.00
6833;BME280;3454;42.654;23.378;2024-03-07T02:58:53;63694.84;;;7.27;100.00
6833;BME280;3454;42.654;23.378;2024-03-07T03:01:19;63692.13;;;7.25;100.00
6833;BME280;3454;42.654;23.378;2024-03-07T03:03:44;63686.66;;;7.20;100.00
6833;BME280;3454;42.654;23.378;2024-03-07T03:06:10;63679.56;;;7.13;100.00
6833;BME280;3454;42.654;23.378;2024-03-07T03:08:36;63684.81;;;7.16;100.00
6833;BME280;3454;42.654;23.378;2024-03-07T03:11:02;63665.19;;;6.98;100.00
6833;BME280;3454;42.654;23.378;2024-03-07T03:13:29;63679.91;;;7.11;100.00
6833;BME280;3454;42.654;23.378;2024-03-07T03:15:55;63692.47;;;7.23;100.00
6833;BME280;3454;42.654;23.378;2024-03-07T03:18:22;63678.81;;;7.10;100.00
6833;BME280;3454;42.654;23.378;2024-03-07T03:20:49;63668.25;;;6.98;100.00
6833;BME280;3454;42.654;23.378;2024-03-07T03:23:15;63657.75;;;6.93;100.00
6833;BME280;3454;42.654;23.378;2024-03-07T03:25:41;63673.34;;;7.05;100.00
6833;BME280;3454;42.654;23.378;2024-03-07T03:28:07;63653.19;;;6.87;100.00
6833;BME280;3454;42.654;23.378;2024-03-07T03:30:40;63644.47;;;6.78;100.00
6833;BME280;3454;42.654;23.378;2024-03-07T03:33:08;63645.56;;;6.79;100.00
6833;BME280;3454;42.654;23.378;2024-03-07T03:35:42;63633.03;;;6.68;100.00
6833;BME280;3454;42.654;23.378;2024-03-07T03:38:08;63614.47;;;6.51;100.00
6833;BME280;3454;42.654;23.378;2024-03-07T03:40:35;63612.84;;;6.49;100.00
6833;BME280;3454;42.654;23.378;2024-03-07T03:43:00;63617.22;;;6.53;100.00
6833;BME280;3454;42.654;23.378;2024-03-07T03:45:26;63639.34;;;6.71;100.00
6833;BME280;3454;42.654;23.378;2024-03-07T03:47:52;63651.00;;;6.85;100.00
6833;BME280;3454;42.654;23.378;2024-03-07T03:50:18;63643.06;;;6.79;100.00
6833;BME280;3454;42.654;23.378;2024-03-07T03:52:44;63623.97;;;6.62;100.00
6833;BME280;3454;42.654;23.378;2024-03-07T03:55:10;63626.72;;;6.64;100.00
6833;BME280;3454;42.654;23.378;2024-03-07T03:57:41;63621.03;;;6.57;100.00
6833;BME280;3454;42.654;23.378;2024-03-07T04:00:08;63609.28;;;6.48;100.00
6833;BME280;3454;42.654;23.378;2024-03-07T04:02:44;63614.38;;;6.55;100.00
6833;BME280;3454;42.654;23.378;2024-03-07T04:05:13;63594.78;;;6.37;100.00
6833;BME280;3454;42.654;23.378;2024-03-07T04:07:40;63605.53;;;6.40;100.00
6833;BME280;3454;42.654;23.378;2024-03-07T04:10:07;63605.22;;;6.42;100.00
6833;BME280;3454;42.654;23.378;2024-03-07T04:12:37;63610.13;;;6.47;100.00
6833;BME280;3454;42.654;23.378;2024-03-07T04:15:04;63644.16;;;6.81;100.00
6833;BME280;3454;42.654;23.378;2024-03-07T04:17:32;63655.06;;;6.91;100.00
6833;BME280;3454;42.654;23.378;2024-03-07T04:20:03;63623.19;;;6.59;100.00
6833;BME280;3454;42.654;23.378;2024-03-07T04:22:32;63628.66;;;6.64;100.00
6833;BME280;3454;42.654;23.378;2024-03-07T04:25:01;63614.16;;;6.53;100.00
6833;BME280;3454;42.654;23.378;2024-03-07T04:27:27;63612.63;;;6.47;100.00
6833;BME280;3454;42.654;23.378;2024-03-07T04:29:54;63613.63;;;6.52;100.00
6833;BME280;3454;42.654;23.378;2024-03-07T04:32:20;63620.16;;;6.58;100.00
6833;BME280;3454;42.654;23.378;2024-03-07T04:34:46;63625.28;;;6.65;100.00
6833;BME280;3454;42.654;23.378;2024-03-07T04:37:12;63619.94;;;6.56;100.00
6833;BME280;3454;42.654;23.378;2024-03-07T04:39:41;63618.00;;;6.56;100.00
6833;BME280;3454;42.654;23.378;2024-03-07T04:42:08;63633.56;;;6.68;100.00
6833;BME280;3454;42.654;23.378;2024-03-07T04:44:37;63633.78;;;6.71;100.00
6833;BME280;3454;42.654;23.378;2024-03-07T04:47:03;63648.84;;;6.83;100.00
6833;BME280;3454;42.654;23.378;2024-03-07T04:49:30;63634.88;;;6.72;100.00
6833;BME280;3454;42.654;23.378;2024-03-07T04:52:00;63632.69;;;6.70;100.00
6833;BME280;3454;42.654;23.378;2024-03-07T04:54:27;63640.44;;;6.72;100.00
6833;BME280;3454;42.654;23.378;2024-03-07T04:56:53;63651.53;;;6.85;100.00
6833;BME280;3454;42.654;23.378;2024-03-07T04:59:20;63665.41;;;7.00;100.00
6833;BME280;3454;42.654;23.378;2024-03-07T05:01:47;63659.94;;;6.95;100.00
6833;BME280;3454;42.654;23.378;2024-03-07T05:04:15;63670.66;;;7.03;100.00
6833;BME280;3454;42.654;23.378;2024-03-07T05:06:41;63671.16;;;7.03;100.00
6833;BME280;3454;42.654;23.378;2024-03-07T05:09:09;63673.91;;;7.06;100.00
6833;BME280;3454;42.654;23.378;2024-03-07T05:11:36;63668.47;;;7.01;100.00
6833;BME280;3454;42.654;23.378;2024-03-07T05:14:02;63648.28;;;6.82;100.00
6833;BME280;3454;42.654;23.378;2024-03-07T05:16:30;63640.13;;;6.74;100.00
6833;BME280;3454;42.654;23.378;2024-03-07T05:18:59;63662.25;;;6.93;100.00
6833;BME280;3454;42.654;23.378;2024-03-07T05:21:28;63663.88;;;6.94;100.00
6833;BME280;3454;42.654;23.378;2024-03-07T05:23:56;63656.69;;;6.92;100.00
6833;BME280;3454;42.654;23.378;2024-03-07T05:26:22;63658.41;;;6.89;100.00
6833;BME280;3454;42.654;23.378;2024-03-07T05:28:47;63658.63;;;6.92;100.00
6833;BME280;3454;42.654;23.378;2024-03-07T05:31:13;63637.38;;;6.72;100.00
6833;BME280;3454;42.654;23.378;2024-03-07T05:33:39;63655.06;;;6.91;100.00
6833;BME280;3454;42.654;23.378;2024-03-07T05:36:06;63660.28;;;6.93;100.00
6833;BME280;3454;42.654;23.378;2024-03-07T05:38:42;63646.09;;;6.80;100.00
6833;BME280;3454;42.654;23.378;2024-03-07T05:41:13;63657.00;;;6.90;100.00
6833;BME280;3454;42.654;23.378;2024-03-07T05:43:39;63682.63;;;7.14;100.00
6833;BME280;3454;42.654;23.378;2024-03-07T05:46:05;63696.50;;;7.29;100.00
6833;BME280;3454;42.654;23.378;2024-03-07T05:48:33;63688.09;;;7.19;100.00
6833;BME280;3454;42.654;23.378;2024-03-07T05:50:59;63685.91;;;7.17;100.00
6833;BME280;3454;42.654;23.378;2024-03-07T05:53:25;63726.25;;;7.54;100.00
6833;BME280;3454;42.654;23.378;2024-03-07T05:55:50;63735.56;;;7.62;100.00
6833;BME280;3454;42.654;23.378;2024-03-07T05:58:16;63752.47;;;7.78;100.00
6833;BME280;3454;42.654;23.378;2024-03-07T06:00:46;63732.81;;;7.60;100.00
6833;BME280;3454;42.654;23.378;2024-03-07T06:03:16;63723.22;;;7.53;100.00
6833;BME280;3454;42.654;23.378;2024-03-07T06:05:43;63732.81;;;7.60;100.00
6833;BME280;3454;42.654;23.378;2024-03-07T06:08:19;63756.06;;;7.79;100.00
6833;BME280;3454;42.654;23.378;2024-03-07T06:10:46;63770.47;;;7.95;100.00
6833;BME280;3454;42.654;23.378;2024-03-07T06:13:14;63765.34;;;7.88;100.00
6833;BME280;3454;42.654;23.378;2024-03-07T06:15:43;63734.44;;;7.61;100.00
6833;BME280;3454;42.654;23.378;2024-03-07T06:18:08;63746.13;;;7.75;100.00
6833;BME280;3454;42.654;23.378;2024-03-07T06:20:36;63726.50;;;7.56;100.00
6833;BME280;3454;42.654;23.378;2024-03-07T06:23:03;63716.47;;;7.45;100.00
6833;BME280;3454;42.654;23.378;2024-03-07T06:25:34;63675.53;;;7.07;100.00
6833;BME280;3454;42.654;23.378;2024-03-07T06:28:04;63660.06;;;6.91;100.00
6833;BME280;3454;42.654;23.378;2024-03-07T06:30:37;63657.56;;;6.91;100.00
6833;BME280;3454;42.654;23.378;2024-03-07T06:33:03;63673.69;;;7.03;100.00
6833;BME280;3454;42.654;23.378;2024-03-07T06:35:29;63709.69;;;7.36;100.00
6833;BME280;3454;42.654;23.378;2024-03-07T06:37:54;63693.00;;;7.23;100.00
6833;BME280;3454;42.654;23.378;2024-03-07T06:40:20;63700.84;;;7.33;100.00
6833;BME280;3454;42.654;23.378;2024-03-07T06:42:50;63705.22;;;7.37;100.00
6833;BME280;3454;42.654;23.378;2024-03-07T06:45:18;63717.22;;;7.48;100.00
6833;BME280;3454;42.654;23.378;2024-03-07T06:47:43;63703.91;;;7.33;100.00
6833;BME280;3454;42.654;23.378;2024-03-07T06:50:09;63694.63;;;7.25;100.00
6833;BME280;3454;42.654;23.378;2024-03-07T06:52:35;63681.00;;;7.12;100.00
6833;BME280;3454;42.654;23.378;2024-03-07T06:55:01;63713.19;;;7.42;100.00
6833;BME280;3454;42.654;23.378;2024-03-07T06:57:29;63699.53;;;7.29;100.00
6833;BME280;3454;42.654;23.378;2024-03-07T06:59:55;63722.47;;;7.50;100.00
6833;BME280;3454;42.654;23.378;2024-03-07T07:02:20;63737.19;;;7.64;100.00
6833;BME280;3454;42.654;23.378;2024-03-07T07:04:47;63719.72;;;7.48;100.00
6833;BME280;3454;42.654;23.378;2024-03-07T07:07:13;63743.72;;;7.70;100.00
6833;BME280;3454;42.654;23.378;2024-03-07T07:09:40;63747.00;;;7.73;100.00
6833;BME280;3454;42.654;23.378;2024-03-07T07:12:06;63755.50;;;7.79;100.00
6833;BME280;3454;42.654;23.378;2024-03-07T07:14:32;63756.63;;;7.80;100.00
6833;BME280;3454;42.654;23.378;2024-03-07T07:16:58;63761.75;;;7.87;100.00
6833;BME280;3454;42.654;23.378;2024-03-07T07:19:26;63762.28;;;7.87;100.00
6833;BME280;3454;42.654;23.378;2024-03-07T07:21:53;63762.28;;;7.87;100.00
6833;BME280;3454;42.654;23.378;2024-03-07T07:24:20;63772.88;;;7.99;100.00
6833;BME280;3454;42.654;23.378;2024-03-07T07:26:47;63796.13;;;8.18;100.00
6833;BME280;3454;42.654;23.378;2024-03-07T07:29:13;63781.84;;;8.10;100.00
6833;BME280;3454;42.654;23.378;2024-03-07T07:31:38;63761.41;;;7.89;100.00
6833;BME280;3454;42.654;23.378;2024-03-07T07:34:04;63786.31;;;8.09;100.00
6833;BME280;3454;42.654;23.378;2024-03-07T07:36:31;63814.41;;;8.37;100.00
6833;BME280;3454;42.654;23.378;2024-03-07T07:38:57;63803.00;;;8.22;100.00
6833;BME280;3454;42.654;23.378;2024-03-07T07:41:23;63805.75;;;8.25;100.00
6833;BME280;3454;42.654;23.378;2024-03-07T07:43:49;63802.38;;;8.26;100.00
6833;BME280;3454;42.654;23.378;2024-03-07T07:46:17;63817.97;;;8.38;100.00
6833;BME280;3454;42.654;23.378;2024-03-07T07:48:43;63822.03;;;8.44;100.00
6833;BME280;3454;42.654;23.378;2024-03-07T07:51:09;63844.19;;;8.63;100.00
6833;BME280;3454;42.654;23.378;2024-03-07T07:53:34;63859.16;;;8.79;100.00
6833;BME280;3454;42.654;23.378;2024-03-07T07:56:00;63870.88;;;8.92;100.00
6833;BME280;3454;42.654;23.378;2024-03-07T07:58:26;63859.50;;;8.77;100.00
6833;BME280;3454;42.654;23.378;2024-03-07T08:00:51;63867.38;;;8.86;100.00
6833;BME280;3454;42.654;23.378;2024-03-07T08:03:17;63802.38;;;8.26;100.00
6833;BME280;3454;42.654;23.378;2024-03-07T08:05:43;63841.47;;;8.60;100.00
6833;BME280;3454;42.654;23.378;2024-03-07T08:08:10;63886.81;;;9.02;100.00
6833;BME280;3454;42.654;23.378;2024-03-07T08:10:42;63866.81;;;8.86;100.00
6833;BME280;3454;42.654;23.378;2024-03-07T08:13:07;63897.19;;;9.11;100.00
6833;BME280;3454;42.654;23.378;2024-03-07T08:15:36;63894.16;;;9.11;100.00
6833;BME280;3454;42.654;23.378;2024-03-07T08:18:01;63892.72;;;9.12;100.00
6833;BME280;3454;42.654;23.378;2024-03-07T08:20:27;63892.16;;;9.11;100.00
6833;BME280;3454;42.654;23.378;2024-03-07T08:22:55;63881.91;;;8.97;100.00
6833;BME280;3454;42.654;23.378;2024-03-07T08:25:22;63861.34;;;8.81;100.00
6833;BME280;3454;42.654;23.378;2024-03-07T08:27:52;63866.38;;;8.81;100.00
6833;BME280;3454;42.654;23.378;2024-03-07T08:30:19;63865.72;;;8.85;100.00
6833;BME280;3454;42.654;23.378;2024-03-07T08:32:47;63881.56;;;8.99;100.00
6833;BME280;3454;42.654;23.378;2024-03-07T08:35:13;63891.19;;;9.06;100.00
6833;BME280;3454;42.654;23.378;2024-03-07T08:37:39;63884.84;;;9.02;100.00
6833;BME280;3454;42.654;23.378;2024-03-07T08:40:06;63888.34;;;9.08;100.00
6833;BME280;3454;42.654;23.378;2024-03-07T08:42:33;63897.19;;;9.11;100.00
6833;BME280;3454;42.654;23.378;2024-03-07T08:45:00;63907.94;;;9.19;100.00
6833;BME280;3454;42.654;23.378;2024-03-07T08:47:37;63897.09;;;9.16;100.00
6833;BME280;3454;42.654;23.378;2024-03-07T08:50:04;63896.88;;;9.13;100.00
6833;BME280;3454;42.654;23.378;2024-03-07T08:52:34;63908.91;;;9.24;100.00
6833;BME280;3454;42.654;23.378;2024-03-07T08:55:02;63911.97;;;9.25;100.00
6833;BME280;3454;42.654;23.378;2024-03-07T08:57:29;63934.16;;;9.43;100.00
6833;BME280;3454;42.654;23.378;2024-03-07T08:59:56;63937.56;;;9.53;100.00
6833;BME280;3454;42.654;23.378;2024-03-07T09:02:21;63939.28;;;9.50;100.00
6833;BME280;3454;42.654;23.378;2024-03-07T09:04:47;63920.72;;;9.33;100.00
6833;BME280;3454;42.654;23.378;2024-03-07T09:07:13;63912.41;;;9.30;100.00
6833;BME280;3454;42.654;23.378;2024-03-07T09:09:43;63912.16;;;9.27;100.00
6833;BME280;3454;42.654;23.378;2024-03-07T09:12:11;63931.31;;;9.45;100.00
6833;BME280;3454;42.654;23.378;2024-03-07T09:14:37;63946.28;;;9.61;100.00
6833;BME280;3454;42.654;23.378;2024-03-07T09:17:03;63931.41;;;9.41;100.00
6833;BME280;3454;42.654;23.378;2024-03-07T09:19:31;63933.84;;;9.45;100.00
6833;BME280;3454;42.654;23.378;2024-03-07T09:21:56;63943.34;;;9.56;100.00
6833;BME280;3454;42.654;23.378;2024-03-07T09:24:22;63960.84;;;9.72;100.00
6833;BME280;3454;42.654;23.378;2024-03-07T09:26:50;63955.69;;;9.65;100.00
6833;BME280;3454;42.654;23.378;2024-03-07T09:29:17;63969.91;;;9.78;100.00
6833;BME280;3454;42.654;23.378;2024-03-07T09:31:46;63956.78;;;9.66;100.00
6833;BME280;3454;42.654;23.378;2024-03-07T09:34:15;63937.31;;;9.51;100.00
6833;BME280;3454;42.654;23.378;2024-03-07T09:36:41;63921.25;;;9.33;100.00
6833;BME280;3454;42.654;23.378;2024-03-07T09:39:08;63900.50;;;9.14;100.00
6833;BME280;3454;42.654;23.378;2024-03-07T09:41:40;63920.38;;;9.35;100.00
6833;BME280;3454;42.654;23.378;2024-03-07T09:44:09;63950.78;;;9.61;100.00
6833;BME280;3454;42.654;23.378;2024-03-07T09:46:37;63976.47;;;9.84;100.00
6833;BME280;3454;42.654;23.378;2024-03-07T09:49:05;63987.63;;;9.97;100.00
6833;BME280;3454;42.654;23.378;2024-03-07T09:51:34;63994.19;;;10.03;100.00
6833;BME280;3454;42.654;23.378;2024-03-07T09:54:01;63993.09;;;10.02;100.00
6833;BME280;3454;42.654;23.378;2024-03-07T09:56:27;64001.09;;;10.07;100.00
6833;BME280;3454;42.654;23.378;2024-03-07T09:58:58;64013.13;;;10.18;100.00
6833;BME280;3454;42.654;23.378;2024-03-07T10:01:30;64014.47;;;10.22;100.00
6833;BME280;3454;42.654;23.378;2024-03-07T10:04:00;64017.72;;;10.25;100.00
6833;BME280;3454;42.654;23.378;2024-03-07T10:06:40;64037.22;;;10.40;100.00
6833;BME280;3454;42.654;23.378;2024-03-07T10:09:10;64063.28;;;10.62;100.00
6833;BME280;3454;42.654;23.378;2024-03-07T10:11:42;64090.75;;;10.94;100.00
6833;BME280;3454;42.654;23.378;2024-03-07T10:14:09;64110.56;;;11.08;100.00
6833;BME280;3454;42.654;23.378;2024-03-07T10:16:36;64115.72;;;11.15;100.00
6833;BME280;3454;42.654;23.378;2024-03-07T10:19:05;64124.25;;;11.20;100.00
6833;BME280;3454;42.654;23.378;2024-03-07T10:21:33;64112.44;;;11.12;100.00
6833;BME280;3454;42.654;23.378;2024-03-07T10:24:07;64144.72;;;11.41;100.00
6833;BME280;3454;42.654;23.378;2024-03-07T10:26:37;64172.16;;;11.66;100.00
6833;BME280;3454;42.654;23.378;2024-03-07T10:29:06;64153.72;;;11.52;100.00
6833;BME280;3454;42.654;23.378;2024-03-07T10:31:36;64144.53;;;11.39;100.00
6833;BME280;3454;42.654;23.378;2024-03-07T10:34:03;64135.97;;;11.33;100.00
6833;BME280;3454;42.654;23.378;2024-03-07T10:36:32;64130.28;;;11.26;100.00
6833;BME280;3454;42.654;23.378;2024-03-07T10:39:01;64126.66;;;11.25;100.00
6833;BME280;3454;42.654;23.378;2024-03-07T10:41:28;64121.75;;;11.20;100.00
6833;BME280;3454;42.654;23.378;2024-03-07T10:43:57;64100.91;;;11.01;100.00
6833;BME280;3454;42.654;23.378;2024-03-07T10:46:26;64096.53;;;10.97;100.00
6833;BME280;3454;42.654;23.378;2024-03-07T10:48:55;64096.22;;;10.99;100.00
6833;BME280;3454;42.654;23.378;2024-03-07T10:51:33;64094.16;;;10.92;100.00
6833;BME280;3454;42.654;23.378;2024-03-07T10:54:36;64109.16;;;11.09;100.00
6833;BME280;3454;42.654;23.378;2024-03-07T10:57:23;64096.34;;;10.94;100.00
6833;BME280;3454;42.654;23.378;2024-03-07T11:00:03;64087.59;;;10.86;100.00
6833;BME280;3454;42.654;23.378;2024-03-07T11:02:49;64091.06;;;10.92;100.00
6833;BME280;3454;42.654;23.378;2024-03-07T11:05:19;64045.31;;;10.52;100.00
6833;BME280;3454;42.654;23.378;2024-03-07T11:07:45;64032.72;;;10.41;100.00
6833;BME280;3454;42.654;23.378;2024-03-07T11:10:13;64047.84;;;10.52;100.00
6833;BME280;3454;42.654;23.378;2024-03-07T11:12:39;64064.81;;;10.68;100.00
6833;BME280;3454;42.654;23.378;2024-03-07T11:15:08;64048.69;;;10.51;100.00
6833;BME280;3454;42.654;23.378;2024-03-07T11:17:43;64038.88;;;10.42;100.00
6833;BME280;3454;42.654;23.378;2024-03-07T11:20:48;64026.47;;;10.33;100.00
6833;BME280;3454;42.654;23.378;2024-03-07T11:23:32;64009.88;;;10.15;100.00
6833;BME280;3454;42.654;23.378;2024-03-07T11:28:41;63987.84;;;9.99;100.00
6833;BME280;3454;42.654;23.378;2024-03-07T11:33:36;63987.31;;;9.99;100.00
6833;BME280;3454;42.654;23.378;2024-03-07T11:36:09;63988.19;;;9.97;100.00
6833;BME280;3454;42.654;23.378;2024-03-07T11:38:45;64015.00;;;10.22;100.00
6833;BME280;3454;42.654;23.378;2024-03-07T11:41:11;64024.84;;;10.31;100.00
6833;BME280;3454;42.654;23.378;2024-03-07T11:43:40;64007.66;;;10.13;100.00
6833;BME280;3454;42.654;23.378;2024-03-07T11:46:08;64006.78;;;10.14;100.00
6833;BME280;3454;42.654;23.378;2024-03-07T11:48:42;64003.53;;;10.11;100.00
6833;BME280;3454;42.654;23.378;2024-03-07T11:51:12;64015.31;;;10.20;100.00
6833;BME280;3454;42.654;23.378;2024-03-07T11:53:39;64003.53;;;10.11;100.00
6833;BME280;3454;42.654;23.378;2024-03-07T11:56:05;64009.53;;;10.17;100.00
6833;BME280;3454;42.654;23.378;2024-03-07T11:58:41;64027.03;;;10.33;100.00
6833;BME280;3454;42.654;23.378;2024-03-07T12:01:10;64019.69;;;10.24;100.00
6833;BME280;3454;42.654;23.378;2024-03-07T12:03:39;64015.88;;;10.21;100.00
6833;BME280;3454;42.654;23.378;2024-03-07T12:06:04;63979.44;;;9.89;100.00
6833;BME280;3454;42.654;23.378;2024-03-07T12:08:30;64000.53;;;10.06;100.00
6833;BME280;3454;42.654;23.378;2024-03-07T12:10:56;64015.31;;;10.20;100.00
6833;BME280;3454;42.654;23.378;2024-03-07T12:13:22;64017.41;;;10.27;100.00
6833;BME280;3454;42.654;23.378;2024-03-07T12:15:50;64002.97;;;10.11;100.00
6833;BME280;3454;42.654;23.378;2024-03-07T12:18:21;64012.81;;;10.20;100.00
6833;BME280;3454;42.654;23.378;2024-03-07T12:20:48;64004.28;;;10.14;100.00
6833;BME280;3454;42.654;23.378;2024-03-07T12:23:19;63992.34;;;9.99;100.00
6833;BME280;3454;42.654;23.378;2024-03-07T12:25:47;64007.66;;;10.13;100.00
6833;BME280;3454;42.654;23.378;2024-03-07T12:28:14;63993.63;;;10.02;100.00
6833;BME280;3454;42.654;23.378;2024-03-07T12:33:12;64010.41;;;10.16;100.00
6833;BME280;3454;42.654;23.378;2024-03-07T12:35:43;63993.97;;;10.00;100.00
6833;BME280;3454;42.654;23.378;2024-03-07T12:38:11;63995.84;;;10.04;100.00
6833;BME280;3454;42.654;23.378;2024-03-07T12:40:40;63997.69;;;10.08;100.00
6833;BME280;3454;42.654;23.378;2024-03-07T12:43:20;63996.94;;;10.05;100.00
6833;BME280;3454;42.654;23.378;2024-03-07T12:45:52;64012.59;;;10.18;100.00
6833;BME280;3454;42.654;23.378;2024-03-07T12:48:20;64026.28;;;10.30;100.00
6833;BME280;3454;42.654;23.378;2024-03-07T12:50:49;64025.72;;;10.30;100.00
6833;BME280;3454;42.654;23.378;2024-03-07T12:53:24;64037.44;;;10.43;100.00
6833;BME280;3454;42.654;23.378;2024-03-07T12:55:54;64037.44;;;10.43;100.00
6833;BME280;3454;42.654;23.378;2024-03-07T12:58:20;64036.34;;;10.42;100.00
6833;BME280;3454;42.654;23.378;2024-03-07T13:00:54;64042.91;;;10.48;100.00
6833;BME280;3454;42.654;23.378;2024-03-07T13:03:28;64044.53;;;10.49;100.00
6833;BME280;3454;42.654;23.378;2024-03-07T13:05:58;64056.25;;;10.62;100.00
6833;BME280;3454;42.654;23.378;2024-03-07T13:08:27;64078.28;;;10.78;100.00
6833;BME280;3454;42.654;23.378;2024-03-07T13:10:55;64086.16;;;10.87;100.00
6833;BME280;3454;42.654;23.378;2024-03-07T13:13:21;64081.22;;;10.83;100.00
6833;BME280;3454;42.654;23.378;2024-03-07T13:15:47;64068.41;;;10.69;100.00
6833;BME280;3454;42.654;23.378;2024-03-07T13:18:13;64085.16;;;10.82;100.00